sensor_id;sensor_type;location;lat;lon;timestamp;P1;durP1;ratioP1;P2;durP2;ratioP2
6143;SDS011;3103;49.492;8.474;2023-04-24T00:01:13;5.67;;;2.80;;
6143;SDS011;3103;49.492;8.474;2023-04-24T00:03:41;8.87;;;5.20;;
6143;SDS011;3103;49.492;8.474;2023-04-24T00:06:08;8.67;;;5.87;;
6143;SDS011;3103;49.492;8.474;2023-04-24T00:08:35;8.33;;;5.37;;
6143;SDS011;3103;49.492;8.474;2023-04-24T00:11:02;13.87;;;8.87;;
6143;SDS011;3103;49.492;8.474;2023-04-24T00:13:29;4.37;;;2.90;;
6143;SDS011;3103;49.492;8.474;2023-04-24T00:15:57;5.23;;;3.53;;
6143;SDS011;3103;49.492;8.474;2023-04-24T00:18:24;4.43;;;3.23;;
6143;SDS011;3103;49.492;8.474;2023-04-24T00:20:50;3.67;;;2.53;;
6143;SDS011;3103;49.492;8.474;2023-04-24T00:23:17;3.90;;;1.87;;
6143;SDS011;3103;49.492;8.474;2023-04-24T00:25:45;2.93;;;1.80;;
6143;SDS011;3103;49.492;8.474;2023-04-24T00:28:12;1.60;;;1.50;;
6143;SDS011;3103;49.492;8.474;2023-04-24T00:30:39;3.43;;;2.00;;
6143;SDS011;3103;49.492;8.474;2023-04-24T00:33:06;2.50;;;1.70;;
6143;SDS011;3103;49.492;8.474;2023-04-24T00:35:33;3.30;;;1.17;;
6143;SDS011;3103;49.492;8.474;2023-04-24T00:38:00;1.70;;;1.60;;
6143;SDS011;3103;49.492;8.474;2023-04-24T00:40:27;2.63;;;1.83;;
6143;SDS011;3103;49.492;8.474;2023-04-24T00:42:54;1.53;;;1.43;;
6143;SDS011;3103;49.492;8.474;2023-04-24T00:45:22;1.93;;;1.67;;
6143;SDS011;3103;49.492;8.474;2023-04-24T00:47:48;2.10;;;1.70;;
6143;SDS011;3103;49.492;8.474;2023-04-24T00:50:18;1.97;;;1.50;;
6143;SDS011;3103;49.492;8.474;2023-04-24T00:52:48;2.13;;;1.50;;
6143;SDS011;3103;49.492;8.474;2023-04-24T00:55:15;1.80;;;1.70;;
6143;SDS011;3103;49.492;8.474;2023-04-24T00:57:43;2.47;;;1.50;;
6143;SDS011;3103;49.492;8.474;2023-04-24T01:00:11;4.00;;;1.60;;
6143;SDS011;3103;49.492;8.474;2023-04-24T01:02:41;2.00;;;1.57;;
6143;SDS011;3103;49.492;8.474;2023-04-24T01:05:13;1.80;;;1.50;;
6143;SDS011;3103;49.492;8.474;2023-04-24T01:07:48;1.73;;;1.63;;
6143;SDS011;3103;49.492;8.474;2023-04-24T01:10:15;3.97;;;1.90;;
6143;SDS011;3103;49.492;8.474;2023-04-24T01:12:44;3.20;;;1.70;;
6143;SDS011;3103;49.492;8.474;2023-04-24T01:15:12;1.73;;;1.60;;
6143;SDS011;3103;49.492;8.474;2023-04-24T01:17:41;4.17;;;1.60;;
6143;SDS011;3103;49.492;8.474;2023-04-24T01:20:08;2.77;;;1.60;;
6143;SDS011;3103;49.492;8.474;2023-04-24T01:22:35;3.00;;;1.77;;
6143;SDS011;3103;49.492;8.474;2023-04-24T01:25:03;2.50;;;1.80;;
6143;SDS011;3103;49.492;8.474;2023-04-24T01:27:31;2.07;;;1.70;;
6143;SDS011;3103;49.492;8.474;2023-04-24T01:29:59;2.30;;;1.90;;
6143;SDS011;3103;49.492;8.474;2023-04-24T01:32:31;2.37;;;1.70;;
6143;SDS011;3103;49.492;8.474;2023-04-24T01:34:59;1.77;;;1.67;;
6143;SDS011;3103;49.492;8.474;2023-04-24T01:37:26;2.10;;;1.60;;
6143;SDS011;3103;49.492;8.474;2023-04-24T01:39:53;2.47;;;1.63;;
6143;SDS011;3103;49.492;8.474;2023-04-24T01:42:20;2.40;;;1.50;;
6143;SDS011;3103;49.492;8.474;2023-04-24T01:44:46;1.70;;;1.57;;
6143;SDS011;3103;49.492;8.474;2023-04-24T01:47:15;4.80;;;1.77;;
6143;SDS011;3103;49.492;8.474;2023-04-24T01:49:42;3.40;;;1.77;;
6143;SDS011;3103;49.492;8.474;2023-04-24T01:52:11;2.17;;;1.83;;
6143;SDS011;3103;49.492;8.474;2023-04-24T01:54:38;1.93;;;1.47;;
6143;SDS011;3103;49.492;8.474;2023-04-24T01:57:04;1.50;;;1.40;;
6143;SDS011;3103;49.492;8.474;2023-04-24T01:59:31;2.17;;;1.70;;
6143;SDS011;3103;49.492;8.474;2023-04-24T02:01:59;1.50;;;1.30;;
6143;SDS011;3103;49.492;8.474;2023-04-24T02:04:26;2.23;;;1.60;;
6143;SDS011;3103;49.492;8.474;2023-04-24T02:06:53;1.73;;;1.50;;
6143;SDS011;3103;49.492;8.474;2023-04-24T02:09:20;2.77;;;1.70;;
6143;SDS011;3103;49.492;8.474;2023-04-24T02:11:47;2.33;;;1.47;;
6143;SDS011;3103;49.492;8.474;2023-04-24T02:14:14;1.77;;;1.30;;
6143;SDS011;3103;49.492;8.474;2023-04-24T02:16:40;2.17;;;1.70;;
6143;SDS011;3103;49.492;8.474;2023-04-24T02:19:07;1.73;;;1.60;;
6143;SDS011;3103;49.492;8.474;2023-04-24T02:21:34;2.33;;;1.80;;
6143;SDS011;3103;49.492;8.474;2023-04-24T02:24:01;1.83;;;1.50;;
6143;SDS011;3103;49.492;8.474;2023-04-24T02:26:28;3.20;;;1.50;;
6143;SDS011;3103;49.492;8.474;2023-04-24T02:28:55;1.70;;;1.60;;
6143;SDS011;3103;49.492;8.474;2023-04-24T02:31:21;3.20;;;1.40;;
6143;SDS011;3103;49.492;8.474;2023-04-24T02:33:48;1.63;;;1.30;;
6143;SDS011;3103;49.492;8.474;2023-04-24T02:36:15;1.80;;;1.53;;
6143;SDS011;3103;49.492;8.474;2023-04-24T02:38:42;2.20;;;1.30;;
6143;SDS011;3103;49.492;8.474;2023-04-24T02:41:08;2.17;;;1.67;;
6143;SDS011;3103;49.492;8.474;2023-04-24T02:43:38;2.57;;;1.70;;
6143;SDS011;3103;49.492;8.474;2023-04-24T02:46:05;2.37;;;2.10;;
6143;SDS011;3103;49.492;8.474;2023-04-24T02:48:32;4.53;;;1.37;;
6143;SDS011;3103;49.492;8.474;2023-04-24T02:50:58;3.47;;;1.50;;
6143;SDS011;3103;49.492;8.474;2023-04-24T02:53:25;2.07;;;1.77;;
6143;SDS011;3103;49.492;8.474;2023-04-24T02:55:52;2.10;;;1.53;;
6143;SDS011;3103;49.492;8.474;2023-04-24T02:58:19;4.00;;;1.90;;
6143;SDS011;3103;49.492;8.474;2023-04-24T03:00:46;4.73;;;1.50;;
6143;SDS011;3103;49.492;8.474;2023-04-24T03:03:14;1.87;;;1.60;;
6143;SDS011;3103;49.492;8.474;2023-04-24T03:05:41;1.60;;;1.50;;
6143;SDS011;3103;49.492;8.474;2023-04-24T03:08:08;2.73;;;2.00;;
6143;SDS011;3103;49.492;8.474;2023-04-24T03:10:36;4.63;;;1.83;;
6143;SDS011;3103;49.492;8.474;2023-04-24T03:13:03;2.80;;;2.07;;
6143;SDS011;3103;49.492;8.474;2023-04-24T03:15:30;2.20;;;1.63;;
6143;SDS011;3103;49.492;8.474;2023-04-24T03:17:57;2.17;;;1.63;;
6143;SDS011;3103;49.492;8.474;2023-04-24T03:20:24;4.37;;;1.67;;
6143;SDS011;3103;49.492;8.474;2023-04-24T03:22:52;3.57;;;2.07;;
6143;SDS011;3103;49.492;8.474;2023-04-24T03:25:19;1.60;;;1.50;;
6143;SDS011;3103;49.492;8.474;2023-04-24T03:27:46;1.67;;;1.57;;
6143;SDS011;3103;49.492;8.474;2023-04-24T03:30:31;4.13;;;1.70;;
6143;SDS011;3103;49.492;8.474;2023-04-24T03:33:00;3.63;;;2.20;;
6143;SDS011;3103;49.492;8.474;2023-04-24T03:35:31;1.70;;;1.60;;
6143;SDS011;3103;49.492;8.474;2023-04-24T03:38:00;1.70;;;1.60;;
6143;SDS011;3103;49.492;8.474;2023-04-24T03:40:39;1.80;;;1.70;;
6143;SDS011;3103;49.492;8.474;2023-04-24T03:43:20;1.57;;;1.47;;
6143;SDS011;3103;49.492;8.474;2023-04-24T03:45:47;1.80;;;1.70;;
6143;SDS011;3103;49.492;8.474;2023-04-24T03:48:16;2.57;;;1.50;;
6143;SDS011;3103;49.492;8.474;2023-04-24T03:50:43;1.60;;;1.50;;
6143;SDS011;3103;49.492;8.474;2023-04-24T03:53:11;2.17;;;1.90;;
6143;SDS011;3103;49.492;8.474;2023-04-24T03:55:40;1.90;;;1.77;;
6143;SDS011;3103;49.492;8.474;2023-04-24T03:58:09;1.60;;;1.50;;
6143;SDS011;3103;49.492;8.474;2023-04-24T04:00:35;2.13;;;1.77;;
6143;SDS011;3103;49.492;8.474;2023-04-24T04:03:29;4.00;;;1.90;;
6143;SDS011;3103;49.492;8.474;2023-04-24T04:05:56;2.53;;;2.00;;
6143;SDS011;3103;49.492;8.474;2023-04-24T04:08:23;2.13;;;1.83;;
6143;SDS011;3103;49.492;8.474;2023-04-24T04:10:50;1.83;;;1.60;;
6143;SDS011;3103;49.492;8.474;2023-04-24T04:13:16;1.73;;;1.53;;
6143;SDS011;3103;49.492;8.474;2023-04-24T04:15:43;1.97;;;1.77;;
6143;SDS011;3103;49.492;8.474;2023-04-24T04:18:10;3.20;;;1.73;;
6143;SDS011;3103;49.492;8.474;2023-04-24T04:20:37;3.23;;;1.57;;
6143;SDS011;3103;49.492;8.474;2023-04-24T04:23:04;4.53;;;2.20;;
6143;SDS011;3103;49.492;8.474;2023-04-24T04:25:44;4.70;;;2.17;;
6143;SDS011;3103;49.492;8.474;2023-04-24T04:28:11;2.90;;;2.00;;
6143;SDS011;3103;49.492;8.474;2023-04-24T04:30:38;2.07;;;1.87;;
6143;SDS011;3103;49.492;8.474;2023-04-24T04:33:06;2.20;;;2.00;;
6143;SDS011;3103;49.492;8.474;2023-04-24T04:35:34;2.03;;;1.90;;
6143;SDS011;3103;49.492;8.474;2023-04-24T04:38:01;2.00;;;1.80;;
6143;SDS011;3103;49.492;8.474;2023-04-24T04:40:55;2.80;;;2.30;;
6143;SDS011;3103;49.492;8.474;2023-04-24T04:43:26;2.20;;;2.00;;
6143;SDS011;3103;49.492;8.474;2023-04-24T04:45:54;2.50;;;1.90;;
6143;SDS011;3103;49.492;8.474;2023-04-24T04:48:47;2.23;;;2.00;;
6143;SDS011;3103;49.492;8.474;2023-04-24T04:51:14;4.23;;;2.30;;
6143;SDS011;3103;49.492;8.474;2023-04-24T04:53:41;4.00;;;2.10;;
6143;SDS011;3103;49.492;8.474;2023-04-24T04:56:07;2.77;;;2.47;;
6143;SDS011;3103;49.492;8.474;2023-04-24T04:58:40;4.53;;;2.23;;
6143;SDS011;3103;49.492;8.474;2023-04-24T05:01:10;2.73;;;2.30;;
6143;SDS011;3103;49.492;8.474;2023-04-24T05:03:40;2.50;;;2.30;;
6143;SDS011;3103;49.492;8.474;2023-04-24T05:06:13;3.73;;;2.77;;
6143;SDS011;3103;49.492;8.474;2023-04-24T05:08:40;2.60;;;2.40;;
6143;SDS011;3103;49.492;8.474;2023-04-24T05:11:11;2.50;;;2.20;;
6143;SDS011;3103;49.492;8.474;2023-04-24T05:13:39;4.03;;;2.60;;
6143;SDS011;3103;49.492;8.474;2023-04-24T05:16:15;3.43;;;2.80;;
6143;SDS011;3103;49.492;8.474;2023-04-24T05:18:43;5.23;;;2.63;;
6143;SDS011;3103;49.492;8.474;2023-04-24T05:21:13;5.03;;;2.80;;
6143;SDS011;3103;49.492;8.474;2023-04-24T05:23:43;5.33;;;2.20;;
6143;SDS011;3103;49.492;8.474;2023-04-24T05:26:13;4.37;;;2.50;;
6143;SDS011;3103;49.492;8.474;2023-04-24T05:28:40;3.70;;;2.63;;
6143;SDS011;3103;49.492;8.474;2023-04-24T05:31:10;3.37;;;2.60;;
6143;SDS011;3103;49.492;8.474;2023-04-24T05:33:38;4.30;;;2.90;;
6143;SDS011;3103;49.492;8.474;2023-04-24T05:36:05;3.70;;;3.30;;
6143;SDS011;3103;49.492;8.474;2023-04-24T05:38:33;4.83;;;2.93;;
6143;SDS011;3103;49.492;8.474;2023-04-24T05:40:59;3.87;;;3.47;;
6143;SDS011;3103;49.492;8.474;2023-04-24T05:43:26;3.60;;;3.07;;
6143;SDS011;3103;49.492;8.474;2023-04-24T05:45:53;4.63;;;3.40;;
6143;SDS011;3103;49.492;8.474;2023-04-24T05:48:20;4.87;;;3.57;;
6143;SDS011;3103;49.492;8.474;2023-04-24T05:50:49;5.37;;;4.13;;
6143;SDS011;3103;49.492;8.474;2023-04-24T05:53:16;6.10;;;3.47;;
6143;SDS011;3103;49.492;8.474;2023-04-24T05:55:43;4.17;;;2.90;;
6143;SDS011;3103;49.492;8.474;2023-04-24T05:58:10;3.80;;;3.10;;
6143;SDS011;3103;49.492;8.474;2023-04-24T06:00:38;6.23;;;3.60;;
6143;SDS011;3103;49.492;8.474;2023-04-24T06:03:08;4.40;;;3.33;;
6143;SDS011;3103;49.492;8.474;2023-04-24T06:05:36;5.13;;;3.43;;
6143;SDS011;3103;49.492;8.474;2023-04-24T06:08:03;4.03;;;3.00;;
6143;SDS011;3103;49.492;8.474;2023-04-24T06:10:35;4.57;;;3.23;;
6143;SDS011;3103;49.492;8.474;2023-04-24T06:13:02;3.20;;;2.90;;
6143;SDS011;3103;49.492;8.474;2023-04-24T06:15:30;4.50;;;3.20;;
6143;SDS011;3103;49.492;8.474;2023-04-24T06:18:06;3.10;;;2.70;;
6143;SDS011;3103;49.492;8.474;2023-04-24T06:20:35;4.03;;;3.20;;
6143;SDS011;3103;49.492;8.474;2023-04-24T06:23:01;4.60;;;2.90;;
6143;SDS011;3103;49.492;8.474;2023-04-24T06:25:28;3.03;;;2.63;;
6143;SDS011;3103;49.492;8.474;2023-04-24T06:27:55;9.97;;;4.63;;
6143;SDS011;3103;49.492;8.474;2023-04-24T06:30:22;4.73;;;3.10;;
6143;SDS011;3103;49.492;8.474;2023-04-24T06:32:50;5.87;;;2.80;;
6143;SDS011;3103;49.492;8.474;2023-04-24T06:35:17;4.20;;;3.00;;
6143;SDS011;3103;49.492;8.474;2023-04-24T06:37:43;3.00;;;2.73;;
6143;SDS011;3103;49.492;8.474;2023-04-24T06:40:10;3.63;;;2.70;;
6143;SDS011;3103;49.492;8.474;2023-04-24T06:42:37;2.73;;;2.50;;
6143;SDS011;3103;49.492;8.474;2023-04-24T06:45:07;4.03;;;2.60;;
6143;SDS011;3103;49.492;8.474;2023-04-24T06:47:34;3.63;;;2.30;;
6143;SDS011;3103;49.492;8.474;2023-04-24T06:50:01;2.40;;;2.20;;
6143;SDS011;3103;49.492;8.474;2023-04-24T06:52:29;2.50;;;2.30;;
6143;SDS011;3103;49.492;8.474;2023-04-24T06:55:02;1.90;;;1.80;;
6143;SDS011;3103;49.492;8.474;2023-04-24T06:57:31;2.53;;;2.30;;
6143;SDS011;3103;49.492;8.474;2023-04-24T06:59:58;2.43;;;1.80;;
6143;SDS011;3103;49.492;8.474;2023-04-24T07:02:25;2.13;;;1.60;;
6143;SDS011;3103;49.492;8.474;2023-04-24T07:04:52;1.60;;;1.50;;
6143;SDS011;3103;49.492;8.474;2023-04-24T07:07:19;2.73;;;2.10;;
6143;SDS011;3103;49.492;8.474;2023-04-24T07:09:45;1.97;;;1.80;;
6143;SDS011;3103;49.492;8.474;2023-04-24T07:12:12;2.83;;;1.70;;
6143;SDS011;3103;49.492;8.474;2023-04-24T07:14:39;2.00;;;1.80;;
6143;SDS011;3103;49.492;8.474;2023-04-24T07:17:06;1.80;;;1.70;;
6143;SDS011;3103;49.492;8.474;2023-04-24T07:19:33;1.50;;;1.40;;
6143;SDS011;3103;49.492;8.474;2023-04-24T07:22:01;2.40;;;1.57;;
6143;SDS011;3103;49.492;8.474;2023-04-24T07:24:29;2.57;;;1.83;;
6143;SDS011;3103;49.492;8.474;2023-04-24T07:26:58;2.40;;;1.80;;
6143;SDS011;3103;49.492;8.474;2023-04-24T07:29:27;1.77;;;1.67;;
6143;SDS011;3103;49.492;8.474;2023-04-24T07:31:54;2.50;;;1.40;;
6143;SDS011;3103;49.492;8.474;2023-04-24T07:34:21;1.50;;;1.40;;
6143;SDS011;3103;49.492;8.474;2023-04-24T07:36:48;1.63;;;1.53;;
6143;SDS011;3103;49.492;8.474;2023-04-24T07:39:14;3.07;;;2.43;;
6143;SDS011;3103;49.492;8.474;2023-04-24T07:41:41;2.03;;;1.83;;
6143;SDS011;3103;49.492;8.474;2023-04-24T07:44:08;2.30;;;1.80;;
6143;SDS011;3103;49.492;8.474;2023-04-24T07:46:34;2.73;;;2.20;;
6143;SDS011;3103;49.492;8.474;2023-04-24T07:49:02;2.47;;;2.00;;
6143;SDS011;3103;49.492;8.474;2023-04-24T07:51:39;2.00;;;1.70;;
6143;SDS011;3103;49.492;8.474;2023-04-24T07:54:06;3.07;;;2.00;;
6143;SDS011;3103;49.492;8.474;2023-04-24T07:56:33;2.00;;;1.80;;
6143;SDS011;3103;49.492;8.474;2023-04-24T07:59:00;1.80;;;1.70;;
6143;SDS011;3103;49.492;8.474;2023-04-24T08:01:27;3.23;;;1.90;;
6143;SDS011;3103;49.492;8.474;2023-04-24T08:03:54;3.03;;;1.60;;
6143;SDS011;3103;49.492;8.474;2023-04-24T08:06:22;15.10;;;9.27;;
6143;SDS011;3103;49.492;8.474;2023-04-24T08:08:49;4.73;;;3.77;;
6143;SDS011;3103;49.492;8.474;2023-04-24T08:11:16;4.73;;;3.47;;
6143;SDS011;3103;49.492;8.474;2023-04-24T08:13:43;4.10;;;2.90;;
6143;SDS011;3103;49.492;8.474;2023-04-24T08:16:09;3.77;;;2.90;;
6143;SDS011;3103;49.492;8.474;2023-04-24T08:18:36;2.30;;;2.10;;
6143;SDS011;3103;49.492;8.474;2023-04-24T08:21:03;2.33;;;2.00;;
6143;SDS011;3103;49.492;8.474;2023-04-24T08:23:30;8.47;;;6.87;;
6143;SDS011;3103;49.492;8.474;2023-04-24T08:25:57;3.10;;;2.70;;
6143;SDS011;3103;49.492;8.474;2023-04-24T08:28:24;4.00;;;2.77;;
6143;SDS011;3103;49.492;8.474;2023-04-24T08:30:52;5.77;;;3.67;;
6143;SDS011;3103;49.492;8.474;2023-04-24T08:33:22;7.83;;;3.40;;
6143;SDS011;3103;49.492;8.474;2023-04-24T08:35:50;11.63;;;7.70;;
6143;SDS011;3103;49.492;8.474;2023-04-24T08:38:17;7.20;;;4.60;;
6143;SDS011;3103;49.492;8.474;2023-04-24T08:40:44;5.10;;;4.10;;
6143;SDS011;3103;49.492;8.474;2023-04-24T08:43:14;3.63;;;3.17;;
6143;SDS011;3103;49.492;8.474;2023-04-24T08:45:42;3.80;;;2.20;;
6143;SDS011;3103;49.492;8.474;2023-04-24T08:48:09;13.70;;;9.23;;
6143;SDS011;3103;49.492;8.474;2023-04-24T08:50:53;3.80;;;2.90;;
6143;SDS011;3103;49.492;8.474;2023-04-24T08:53:19;3.47;;;2.90;;
6143;SDS011;3103;49.492;8.474;2023-04-24T08:55:47;2.60;;;2.40;;
6143;SDS011;3103;49.492;8.474;2023-04-24T08:58:16;6.43;;;4.43;;
6143;SDS011;3103;49.492;8.474;2023-04-24T09:00:42;9.50;;;6.33;;
6143;SDS011;3103;49.492;8.474;2023-04-24T09:03:13;6.97;;;4.77;;
6143;SDS011;3103;49.492;8.474;2023-04-24T09:05:43;13.83;;;8.17;;
6143;SDS011;3103;49.492;8.474;2023-04-24T09:08:13;5.03;;;3.83;;
6143;SDS011;3103;49.492;8.474;2023-04-24T09:10:40;6.63;;;4.30;;
6143;SDS011;3103;49.492;8.474;2023-04-24T09:13:07;3.70;;;2.57;;
6143;SDS011;3103;49.492;8.474;2023-04-24T09:15:37;4.90;;;2.53;;
6143;SDS011;3103;49.492;8.474;2023-04-24T09:18:05;2.97;;;2.20;;
6143;SDS011;3103;49.492;8.474;2023-04-24T09:20:32;2.20;;;1.90;;
6143;SDS011;3103;49.492;8.474;2023-04-24T09:22:59;3.40;;;2.10;;
6143;SDS011;3103;49.492;8.474;2023-04-24T09:25:33;2.40;;;2.03;;
6143;SDS011;3103;49.492;8.474;2023-04-24T09:28:03;2.20;;;2.00;;
6143;SDS011;3103;49.492;8.474;2023-04-24T09:30:32;2.20;;;2.00;;
6143;SDS011;3103;49.492;8.474;2023-04-24T09:33:14;3.60;;;2.10;;
6143;SDS011;3103;49.492;8.474;2023-04-24T09:35:42;2.93;;;2.33;;
6143;SDS011;3103;49.492;8.474;2023-04-24T09:38:16;2.07;;;1.87;;
6143;SDS011;3103;49.492;8.474;2023-04-24T09:40:43;6.70;;;3.80;;
6143;SDS011;3103;49.492;8.474;2023-04-24T09:43:10;12.13;;;7.83;;
6143;SDS011;3103;49.492;8.474;2023-04-24T09:45:38;4.30;;;3.53;;
6143;SDS011;3103;49.492;8.474;2023-04-24T09:48:08;6.40;;;3.87;;
6143;SDS011;3103;49.492;8.474;2023-04-24T09:50:36;3.07;;;2.47;;
6143;SDS011;3103;49.492;8.474;2023-04-24T09:53:03;4.03;;;2.70;;
6143;SDS011;3103;49.492;8.474;2023-04-24T09:55:33;6.03;;;2.80;;
6143;SDS011;3103;49.492;8.474;2023-04-24T09:58:05;3.63;;;2.50;;
6143;SDS011;3103;49.492;8.474;2023-04-24T10:00:34;3.27;;;2.33;;
6143;SDS011;3103;49.492;8.474;2023-04-24T10:03:01;5.37;;;2.70;;
6143;SDS011;3103;49.492;8.474;2023-04-24T10:05:36;3.93;;;2.40;;
6143;SDS011;3103;49.492;8.474;2023-04-24T10:08:06;2.90;;;2.60;;
6143;SDS011;3103;49.492;8.474;2023-04-24T10:10:41;2.70;;;2.20;;
6143;SDS011;3103;49.492;8.474;2023-04-24T10:13:09;2.90;;;2.30;;
6143;SDS011;3103;49.492;8.474;2023-04-24T10:15:37;2.53;;;2.30;;
6143;SDS011;3103;49.492;8.474;2023-04-24T10:18:07;2.40;;;2.20;;
6143;SDS011;3103;49.492;8.474;2023-04-24T10:20:35;3.70;;;2.07;;
6143;SDS011;3103;49.492;8.474;2023-04-24T10:23:03;2.30;;;2.10;;
6143;SDS011;3103;49.492;8.474;2023-04-24T10:25:31;1.87;;;1.70;;
6143;SDS011;3103;49.492;8.474;2023-04-24T10:28:00;3.30;;;1.70;;
6143;SDS011;3103;49.492;8.474;2023-04-24T10:30:34;4.17;;;2.00;;
6143;SDS011;3103;49.492;8.474;2023-04-24T10:33:03;1.80;;;1.70;;
6143;SDS011;3103;49.492;8.474;2023-04-24T10:35:31;2.00;;;1.80;;
6143;SDS011;3103;49.492;8.474;2023-04-24T10:38:06;2.27;;;2.00;;
6143;SDS011;3103;49.492;8.474;2023-04-24T10:40:36;2.53;;;1.90;;
6143;SDS011;3103;49.492;8.474;2023-04-24T10:43:04;3.70;;;1.80;;
6143;SDS011;3103;49.492;8.474;2023-04-24T10:45:32;2.00;;;1.80;;
6143;SDS011;3103;49.492;8.474;2023-04-24T10:48:01;2.03;;;1.83;;
6143;SDS011;3103;49.492;8.474;2023-04-24T10:50:47;2.37;;;2.17;;
6143;SDS011;3103;49.492;8.474;2023-04-24T10:53:19;2.53;;;2.00;;
6143;SDS011;3103;49.492;8.474;2023-04-24T10:55:50;2.23;;;2.03;;
6143;SDS011;3103;49.492;8.474;2023-04-24T10:58:21;2.30;;;2.10;;
6143;SDS011;3103;49.492;8.474;2023-04-24T11:00:58;2.37;;;2.03;;
6143;SDS011;3103;49.492;8.474;2023-04-24T11:03:30;3.50;;;2.07;;
6143;SDS011;3103;49.492;8.474;2023-04-24T11:06:08;4.13;;;2.87;;
6143;SDS011;3103;49.492;8.474;2023-04-24T11:08:42;4.93;;;3.30;;
6143;SDS011;3103;49.492;8.474;2023-04-24T11:11:13;4.73;;;3.70;;
6143;SDS011;3103;49.492;8.474;2023-04-24T11:16:25;3.20;;;2.60;;
6143;SDS011;3103;49.492;8.474;2023-04-24T11:19:02;3.43;;;2.53;;
6143;SDS011;3103;49.492;8.474;2023-04-24T11:21:48;4.70;;;3.93;;
6143;SDS011;3103;49.492;8.474;2023-04-24T11:26:54;3.67;;;2.47;;
6143;SDS011;3103;49.492;8.474;2023-04-24T11:29:21;4.63;;;2.93;;
6143;SDS011;3103;49.492;8.474;2023-04-24T11:31:50;3.53;;;2.80;;
6143;SDS011;3103;49.492;8.474;2023-04-24T11:34:18;5.97;;;3.07;;
6143;SDS011;3103;49.492;8.474;2023-04-24T11:36:45;5.23;;;3.70;;
6143;SDS011;3103;49.492;8.474;2023-04-24T11:39:14;7.73;;;3.30;;
6143;SDS011;3103;49.492;8.474;2023-04-24T11:41:41;9.03;;;4.30;;
6143;SDS011;3103;49.492;8.474;2023-04-24T11:44:08;5.30;;;3.83;;
6143;SDS011;3103;49.492;8.474;2023-04-24T11:46:37;4.53;;;3.13;;
6143;SDS011;3103;49.492;8.474;2023-04-24T11:49:07;3.63;;;2.70;;
6143;SDS011;3103;49.492;8.474;2023-04-24T11:51:33;4.13;;;3.10;;
6143;SDS011;3103;49.492;8.474;2023-04-24T11:54:13;4.93;;;3.00;;
6143;SDS011;3103;49.492;8.474;2023-04-24T11:56:44;5.50;;;3.27;;
6143;SDS011;3103;49.492;8.474;2023-04-24T11:59:12;6.50;;;3.93;;
6143;SDS011;3103;49.492;8.474;2023-04-24T12:01:43;9.60;;;5.73;;
6143;SDS011;3103;49.492;8.474;2023-04-24T12:04:12;7.00;;;5.27;;
6143;SDS011;3103;49.492;8.474;2023-04-24T12:06:40;7.80;;;5.37;;
6143;SDS011;3103;49.492;8.474;2023-04-24T12:09:06;4.63;;;3.90;;
6143;SDS011;3103;49.492;8.474;2023-04-24T12:11:52;5.83;;;4.27;;
6143;SDS011;3103;49.492;8.474;2023-04-24T12:14:20;3.67;;;3.10;;
6143;SDS011;3103;49.492;8.474;2023-04-24T12:16:47;5.70;;;4.60;;
6143;SDS011;3103;49.492;8.474;2023-04-24T12:19:20;5.83;;;3.23;;
6143;SDS011;3103;49.492;8.474;2023-04-24T12:22:04;4.97;;;3.07;;
6143;SDS011;3103;49.492;8.474;2023-04-24T12:24:32;3.40;;;2.83;;
6143;SDS011;3103;49.492;8.474;2023-04-24T12:26:59;5.23;;;3.70;;
6143;SDS011;3103;49.492;8.474;2023-04-24T12:29:28;4.23;;;2.97;;
6143;SDS011;3103;49.492;8.474;2023-04-24T12:31:56;4.77;;;3.03;;
6143;SDS011;3103;49.492;8.474;2023-04-24T12:34:23;3.67;;;2.87;;
6143;SDS011;3103;49.492;8.474;2023-04-24T12:36:51;4.60;;;3.37;;
6143;SDS011;3103;49.492;8.474;2023-04-24T12:39:19;4.47;;;3.33;;
6143;SDS011;3103;49.492;8.474;2023-04-24T12:41:56;4.43;;;3.47;;
6143;SDS011;3103;49.492;8.474;2023-04-24T12:44:33;6.60;;;3.87;;
6143;SDS011;3103;49.492;8.474;2023-04-24T12:47:01;5.17;;;3.00;;
6143;SDS011;3103;49.492;8.474;2023-04-24T12:49:29;3.40;;;3.10;;
6143;SDS011;3103;49.492;8.474;2023-04-24T12:51:56;4.83;;;3.60;;
6143;SDS011;3103;49.492;8.474;2023-04-24T12:54:23;3.63;;;2.87;;
6143;SDS011;3103;49.492;8.474;2023-04-24T12:56:50;5.10;;;4.03;;
6143;SDS011;3103;49.492;8.474;2023-04-24T12:59:16;3.67;;;3.03;;
6143;SDS011;3103;49.492;8.474;2023-04-24T13:01:43;5.87;;;3.87;;
6143;SDS011;3103;49.492;8.474;2023-04-24T13:04:10;3.93;;;2.70;;
6143;SDS011;3103;49.492;8.474;2023-04-24T13:06:37;3.47;;;2.70;;
6143;SDS011;3103;49.492;8.474;2023-04-24T13:09:04;3.13;;;2.60;;
6143;SDS011;3103;49.492;8.474;2023-04-24T13:11:31;3.33;;;2.90;;
6143;SDS011;3103;49.492;8.474;2023-04-24T13:13:58;5.70;;;3.57;;
6143;SDS011;3103;49.492;8.474;2023-04-24T13:16:24;6.47;;;4.57;;
6143;SDS011;3103;49.492;8.474;2023-04-24T13:18:51;6.73;;;4.07;;
6143;SDS011;3103;49.492;8.474;2023-04-24T13:21:18;5.77;;;4.30;;
6143;SDS011;3103;49.492;8.474;2023-04-24T13:23:45;9.07;;;5.17;;
6143;SDS011;3103;49.492;8.474;2023-04-24T13:26:11;7.53;;;4.10;;
6143;SDS011;3103;49.492;8.474;2023-04-24T13:28:38;3.77;;;3.00;;
6143;SDS011;3103;49.492;8.474;2023-04-24T13:31:05;9.13;;;5.10;;
6143;SDS011;3103;49.492;8.474;2023-04-24T13:33:32;10.53;;;6.03;;
6143;SDS011;3103;49.492;8.474;2023-04-24T13:35:59;12.27;;;7.73;;
6143;SDS011;3103;49.492;8.474;2023-04-24T13:38:26;9.63;;;6.70;;
6143;SDS011;3103;49.492;8.474;2023-04-24T13:40:53;7.07;;;4.33;;
6143;SDS011;3103;49.492;8.474;2023-04-24T13:47:52;5.73;;;4.57;;
6143;SDS011;3103;49.492;8.474;2023-04-24T13:50:20;10.53;;;7.00;;
6143;SDS011;3103;49.492;8.474;2023-04-24T13:52:47;6.70;;;5.20;;
6143;SDS011;3103;49.492;8.474;2023-04-24T13:55:14;6.93;;;4.87;;
6143;SDS011;3103;49.492;8.474;2023-04-24T13:57:41;6.03;;;4.37;;
6143;SDS011;3103;49.492;8.474;2023-04-24T14:00:08;6.40;;;4.40;;
6143;SDS011;3103;49.492;8.474;2023-04-24T14:02:37;7.20;;;4.40;;
6143;SDS011;3103;49.492;8.474;2023-04-24T14:05:04;4.97;;;3.63;;
6143;SDS011;3103;49.492;8.474;2023-04-24T14:07:32;6.93;;;4.30;;
6143;SDS011;3103;49.492;8.474;2023-04-24T14:09:59;4.10;;;3.20;;
6143;SDS011;3103;49.492;8.474;2023-04-24T14:12:26;4.97;;;3.57;;
6143;SDS011;3103;49.492;8.474;2023-04-24T14:14:53;6.70;;;4.40;;
6143;SDS011;3103;49.492;8.474;2023-04-24T14:17:20;5.50;;;3.77;;
6143;SDS011;3103;49.492;8.474;2023-04-24T14:19:46;5.17;;;4.13;;
6143;SDS011;3103;49.492;8.474;2023-04-24T14:22:13;7.40;;;4.80;;
6143;SDS011;3103;49.492;8.474;2023-04-24T14:24:40;7.27;;;3.77;;
6143;SDS011;3103;49.492;8.474;2023-04-24T14:27:06;5.83;;;3.30;;
6143;SDS011;3103;49.492;8.474;2023-04-24T14:29:33;8.00;;;4.63;;
6143;SDS011;3103;49.492;8.474;2023-04-24T14:32:00;6.90;;;3.60;;
6143;SDS011;3103;49.492;8.474;2023-04-24T14:34:27;6.53;;;4.27;;
6143;SDS011;3103;49.492;8.474;2023-04-24T14:36:54;4.63;;;3.67;;
6143;SDS011;3103;49.492;8.474;2023-04-24T14:39:21;9.20;;;4.07;;
6143;SDS011;3103;49.492;8.474;2023-04-24T14:41:48;3.90;;;2.87;;
6143;SDS011;3103;49.492;8.474;2023-04-24T14:44:15;4.57;;;2.90;;
6143;SDS011;3103;49.492;8.474;2023-04-24T14:46:42;4.33;;;2.97;;
6143;SDS011;3103;49.492;8.474;2023-04-24T14:49:09;4.60;;;2.97;;
6143;SDS011;3103;49.492;8.474;2023-04-24T14:51:36;4.60;;;2.87;;
6143;SDS011;3103;49.492;8.474;2023-04-24T14:54:03;3.47;;;2.53;;
6143;SDS011;3103;49.492;8.474;2023-04-24T14:56:29;3.33;;;2.30;;
6143;SDS011;3103;49.492;8.474;2023-04-24T14:58:56;3.40;;;3.10;;
6143;SDS011;3103;49.492;8.474;2023-04-24T15:01:23;4.33;;;2.93;;
6143;SDS011;3103;49.492;8.474;2023-04-24T15:03:50;3.60;;;3.00;;
6143;SDS011;3103;49.492;8.474;2023-04-24T15:06:18;5.07;;;2.80;;
6143;SDS011;3103;49.492;8.474;2023-04-24T15:08:45;5.37;;;3.30;;
6143;SDS011;3103;49.492;8.474;2023-04-24T15:11:15;6.23;;;4.17;;
6143;SDS011;3103;49.492;8.474;2023-04-24T15:13:42;9.00;;;4.40;;
6143;SDS011;3103;49.492;8.474;2023-04-24T15:16:12;4.00;;;3.00;;
6143;SDS011;3103;49.492;8.474;2023-04-24T15:18:39;9.27;;;5.30;;
6143;SDS011;3103;49.492;8.474;2023-04-24T15:21:06;3.47;;;3.17;;
6143;SDS011;3103;49.492;8.474;2023-04-24T15:23:32;3.40;;;2.93;;
6143;SDS011;3103;49.492;8.474;2023-04-24T15:25:59;6.43;;;3.70;;
6143;SDS011;3103;49.492;8.474;2023-04-24T15:28:27;6.20;;;3.90;;
6143;SDS011;3103;49.492;8.474;2023-04-24T15:30:54;7.77;;;5.37;;
6143;SDS011;3103;49.492;8.474;2023-04-24T15:33:21;7.20;;;4.50;;